Vano — SBNM — position and weather

sailwx.info

Track history (hours):
 
Tides and Currents Weather Stations Pressure Air Temp Water Temp Dewpoint Dewpoint Depression Visibility Wind Speed Wind Dir Waves Ship Positions

Vano

Last reported at 2015-Aug-30 08:33 UTC. Time now 2015-Aug-30 09:59 UTC.
Position N 59°21' E 018°14'.

Length 38 m; draft 1.8 m.

Type: Passenger vessel. MMSI: 265520400.

Date/timePositionNaut miles runAvg speedWind from/ knotsBaromVisibWave heightAir tempDewpointWater temp
2015-Aug-30 08:33N 59°21' E 018°14'5 5.2
2015-Aug-30 07:33N 59°20' E 018°05'0 0.0
2015-Aug-30 06:33N 59°20' E 018°05'0 0.0
2015-Aug-30 05:33N 59°20' E 018°05'0 0.0
2015-Aug-30 04:33N 59°20' E 018°05'0 0.0
2015-Aug-30 03:33N 59°20' E 018°05'0 0.0
2015-Aug-30 02:33N 59°20' E 018°05'0 0.0
2015-Aug-30 01:33N 59°20' E 018°05'0 0.0
2015-Aug-30 00:33N 59°20' E 018°05'0 0.0
2015-Aug-29 23:33N 59°20' E 018°05'0 0.0
2015-Aug-29 22:33N 59°20' E 018°05'0 0.0
2015-Aug-29 21:33N 59°20' E 018°05'0 0.0
2015-Aug-29 20:33N 59°20' E 018°05'0 0.0
2015-Aug-29 19:33N 59°20' E 018°05'5 0.7
2015-Aug-29 12:34N 59°21' E 018°14'5 5.2
2015-Aug-29 11:33N 59°20' E 018°05'0 0.0
2015-Aug-29 10:33N 59°20' E 018°05'0 0.0
2015-Aug-29 09:33N 59°20' E 018°05'5 0.3
2015-Aug-28 15:32N 59°21' E 018°14'5 5.3
2015-Aug-28 14:33N 59°20' E 018°05'0 0.0
2015-Aug-28 13:33N 59°20' E 018°05'9 7.5
2015-Aug-28 12:23N 59°23' E 018°21'0 0.1
2015-Aug-28 07:06N 59°23' E 018°20'711.2
2015-Aug-28 06:31N 59°19' E 018°09'2 2.6
2015-Aug-28 05:33N 59°20' E 018°05'0 0.0
2015-Aug-28 04:33N 59°20' E 018°05'0 0.0
2015-Aug-28 03:33N 59°20' E 018°05'0 0.0
2015-Aug-28 02:33N 59°20' E 018°05'0 0.0
2015-Aug-28 01:33N 59°20' E 018°05'0 0.0
2015-Aug-28 00:33N 59°20' E 018°05'0 0.0
2015-Aug-27 23:33N 59°20' E 018°05'0 0.0
2015-Aug-27 22:33N 59°20' E 018°05'0 0.0
2015-Aug-27 21:33N 59°20' E 018°05'0 0.0
2015-Aug-27 20:33N 59°20' E 018°05'0 0.0
2015-Aug-27 19:33N 59°20' E 018°05'0 0.0
2015-Aug-27 18:33N 59°20' E 018°05'0 0.0
2015-Aug-27 17:33N 59°20' E 018°05'0 0.0
2015-Aug-27 16:33N 59°20' E 018°05'8 7.3
2015-Aug-27 15:26N 59°23' E 018°19'0 0.0
2015-Aug-27 07:05N 59°23' E 018°19'611.4
2015-Aug-27 06:33N 59°19' E 018°09'2 2.5
2015-Aug-27 05:33N 59°20' E 018°05'0 0.0
2015-Aug-27 04:33N 59°20' E 018°05'0 0.0
2015-Aug-27 03:33N 59°20' E 018°05'0 0.0
2015-Aug-27 02:33N 59°20' E 018°05'0 0.0
2015-Aug-27 01:33N 59°20' E 018°05'0 0.0
2015-Aug-27 00:33N 59°20' E 018°05'0 0.0
2015-Aug-26 23:33N 59°20' E 018°05'0 0.0
2015-Aug-26 22:33N 59°20' E 018°05'0 0.0
2015-Aug-26 21:33N 59°20' E 018°05'0 0.0
2015-Aug-26 20:33N 59°20' E 018°05'0 0.0
2015-Aug-26 19:33N 59°20' E 018°05'0 0.0
2015-Aug-26 18:33N 59°20' E 018°05'0 0.0
2015-Aug-26 17:33N 59°20' E 018°05'0 0.0
2015-Aug-26 16:33N 59°20' E 018°05'0 0.0
2015-Aug-26 15:33N 59°20' E 018°05'0 0.0
2015-Aug-26 14:33N 59°20' E 018°05'0 0.0
2015-Aug-26 13:33N 59°20' E 018°05'0 0.0
2015-Aug-26 12:33N 59°20' E 018°05'0 0.0
2015-Aug-26 11:33N 59°20' E 018°05'0 0.0
2015-Aug-26 10:33N 59°20' E 018°05'0 0.0
2015-Aug-26 09:34N 59°20' E 018°05'0 0.0
2015-Aug-26 08:30N 59°20' E 018°05'0 0.0
2015-Aug-26 07:33N 59°20' E 018°05'0 0.0
2015-Aug-26 06:33N 59°20' E 018°05'0 0.0
2015-Aug-26 05:33N 59°20' E 018°05'0 0.0
2015-Aug-26 04:33N 59°20' E 018°05'0 0.0
2015-Aug-26 03:32N 59°20' E 018°05'0 0.0
2015-Aug-26 02:33N 59°20' E 018°05'0 0.0
2015-Aug-26 01:34N 59°20' E 018°05'0 0.0
2015-Aug-26 00:33N 59°20' E 018°05'0 0.0
2015-Aug-25 23:33N 59°20' E 018°05'0 0.0
2015-Aug-25 22:33N 59°20' E 018°05'0 0.0
2015-Aug-25 21:34N 59°20' E 018°05'0 0.0
2015-Aug-25 20:33N 59°20' E 018°05'0 0.0
2015-Aug-25 19:33N 59°20' E 018°05'0 0.0
2015-Aug-25 18:33N 59°20' E 018°05'0 0.0
2015-Aug-25 17:33N 59°20' E 018°05'0 0.0
2015-Aug-25 16:30N 59°20' E 018°05'0 0.0
2015-Aug-25 15:33N 59°20' E 018°05'0 0.0
2015-Aug-25 14:33N 59°20' E 018°05'0 0.0
2015-Aug-25 13:33N 59°20' E 018°05'0 0.0
2015-Aug-25 12:33N 59°20' E 018°05'0 0.0
2015-Aug-25 11:33N 59°20' E 018°05'0 0.0
2015-Aug-25 10:33N 59°20' E 018°05'0 0.0
2015-Aug-25 09:33N 59°20' E 018°05'3 0.6
2015-Aug-25 05:31N 59°19' E 018°10'6 0.5
2015-Aug-24 16:29N 59°23' E 018°20'8 8.9
2015-Aug-24 15:32N 59°20' E 018°05'0 0.2
2015-Aug-24 14:33N 59°20' E 018°05'0 0.0
2015-Aug-24 13:33N 59°20' E 018°05'0 0.0
2015-Aug-24 12:33N 59°20' E 018°05'0 0.0
2015-Aug-24 11:33N 59°20' E 018°05'0 0.0
2015-Aug-24 10:33N 59°20' E 018°05'0 0.0
2015-Aug-24 09:33N 59°20' E 018°05'0 0.0
2015-Aug-24 08:33N 59°20' E 018°05'0 0.0
2015-Aug-24 07:27N 59°20' E 018°05'0 0.0
2015-Aug-24 06:33N 59°20' E 018°05'3 2.6
2015-Aug-24 05:33N 59°19' E 018°09'4 0.4
2015-Aug-23 19:32N 59°22' E 018°16'6 6.2
2015-Aug-23 18:34N 59°20' E 018°04'6 5.7
2015-Aug-23 17:33N 59°22' E 018°15'2 0.2
2015-Aug-23 08:25N 59°20' E 018°12'4 4.7
2015-Aug-23 07:34N 59°20' E 018°05'0 0.0
2015-Aug-23 06:33N 59°20' E 018°05'0 0.0
2015-Aug-23 05:34N 59°20' E 018°05'0 0.0
2015-Aug-23 04:33N 59°20' E 018°05'0 0.0
2015-Aug-23 03:33N 59°20' E 018°05'0 0.0
2015-Aug-23 02:33N 59°20' E 018°05'0 0.0
2015-Aug-23 01:34N 59°20' E 018°05'0 0.0
2015-Aug-23 00:34N 59°20' E 018°05'0 0.0
2015-Aug-22 23:33N 59°20' E 018°05'0 0.0
2015-Aug-22 22:33N 59°20' E 018°05'0 0.0
2015-Aug-22 21:33N 59°20' E 018°05'0 0.0
2015-Aug-22 20:33N 59°20' E 018°05'0 0.0
2015-Aug-22 19:34N 59°20' E 018°05'0 0.0
2015-Aug-22 18:34N 59°20' E 018°05'0 0.0
2015-Aug-22 17:34N 59°20' E 018°05'2 2.2
2015-Aug-22 16:29N 59°19' E 018°09'7 0.7
2015-Aug-22 07:22N 59°23' E 018°20'910.5
2015-Aug-22 06:33N 59°19' E 018°05'0 0.5
2015-Aug-22 05:33N 59°20' E 018°05'0 0.0
2015-Aug-22 04:34N 59°20' E 018°05'0 0.0
2015-Aug-22 03:33N 59°20' E 018°05'0 0.0
2015-Aug-22 02:33N 59°20' E 018°05'0 0.0
2015-Aug-22 01:33N 59°20' E 018°05'0 0.0
2015-Aug-22 00:33N 59°20' E 018°05'0 0.0
2015-Aug-21 23:33N 59°20' E 018°05'0 0.0
2015-Aug-21 22:33N 59°20' E 018°05'0 0.0
2015-Aug-21 21:33N 59°20' E 018°05'0 0.0
2015-Aug-21 20:33N 59°20' E 018°05'0 0.1
2015-Aug-21 19:34N 59°20' E 018°05'7 1.3
2015-Aug-21 14:32N 59°22' E 018°17'7 6.9
2015-Aug-21 13:33N 59°20' E 018°05'3 0.4
2015-Aug-21 06:33N 59°19' E 018°10'3 2.7
2015-Aug-21 05:33N 59°20' E 018°05'0 0.0
2015-Aug-21 04:33N 59°20' E 018°05'0 0.0
2015-Aug-21 03:33N 59°20' E 018°05'0 0.0
2015-Aug-21 02:33N 59°20' E 018°05'0 0.0
2015-Aug-21 01:33N 59°20' E 018°05'0 0.0
2015-Aug-21 00:33N 59°20' E 018°05'0 0.0
2015-Aug-20 23:33N 59°20' E 018°05'0 0.0
2015-Aug-20 22:33N 59°20' E 018°05'0 0.0
2015-Aug-20 21:33N 59°20' E 018°05'0 0.0
2015-Aug-20 20:33N 59°20' E 018°05'0 0.0
2015-Aug-20 19:33N 59°20' E 018°05'0 0.0
2015-Aug-20 18:33N 59°20' E 018°05'0 0.0
2015-Aug-20 17:33N 59°20' E 018°05'0 0.0
2015-Aug-20 16:33N 59°20' E 018°05'8 7.7
2015-Aug-20 15:29N 59°23' E 018°20'  
Track history (hours):
 
Tides and Currents Weather Stations Pressure Air Temp Water Temp Dewpoint Dewpoint Depression Visibility Wind Speed Wind Dir Waves Ship Positions

Vano

Last reported at 2015-Aug-30 08:33 UTC. Time now 2015-Aug-30 09:59 UTC.
Position N 59°21' E 018°14'.

Length 38 m; draft 1.8 m.

Type: Passenger vessel. MMSI: 265520400.

Date/timePositionNaut miles runAvg speedWind from/ knotsBaromVisibWave heightAir tempDewpointWater temp
2015-Aug-30 08:33N 59°21' E 018°14'5 5.2
2015-Aug-30 07:33N 59°20' E 018°05'0 0.0
2015-Aug-30 06:33N 59°20' E 018°05'0 0.0
2015-Aug-30 05:33N 59°20' E 018°05'0 0.0
2015-Aug-30 04:33N 59°20' E 018°05'0 0.0
2015-Aug-30 03:33N 59°20' E 018°05'0 0.0
2015-Aug-30 02:33N 59°20' E 018°05'0 0.0
2015-Aug-30 01:33N 59°20' E 018°05'0 0.0
2015-Aug-30 00:33N 59°20' E 018°05'0 0.0
2015-Aug-29 23:33N 59°20' E 018°05'0 0.0
2015-Aug-29 22:33N 59°20' E 018°05'0 0.0
2015-Aug-29 21:33N 59°20' E 018°05'0 0.0
2015-Aug-29 20:33N 59°20' E 018°05'0 0.0
2015-Aug-29 19:33N 59°20' E 018°05'5 0.7
2015-Aug-29 12:34N 59°21' E 018°14'5 5.2
2015-Aug-29 11:33N 59°20' E 018°05'0 0.0
2015-Aug-29 10:33N 59°20' E 018°05'0 0.0
2015-Aug-29 09:33N 59°20' E 018°05'5 0.3
2015-Aug-28 15:32N 59°21' E 018°14'5 5.3
2015-Aug-28 14:33N 59°20' E 018°05'0 0.0
2015-Aug-28 13:33N 59°20' E 018°05'9 7.5
2015-Aug-28 12:23N 59°23' E 018°21'0 0.1
2015-Aug-28 07:06N 59°23' E 018°20'711.2
2015-Aug-28 06:31N 59°19' E 018°09'2 2.6
2015-Aug-28 05:33N 59°20' E 018°05'0 0.0
2015-Aug-28 04:33N 59°20' E 018°05'0 0.0
2015-Aug-28 03:33N 59°20' E 018°05'0 0.0
2015-Aug-28 02:33N 59°20' E 018°05'0 0.0
2015-Aug-28 01:33N 59°20' E 018°05'0 0.0
2015-Aug-28 00:33N 59°20' E 018°05'0 0.0
2015-Aug-27 23:33N 59°20' E 018°05'0 0.0
2015-Aug-27 22:33N 59°20' E 018°05'0 0.0
2015-Aug-27 21:33N 59°20' E 018°05'0 0.0
2015-Aug-27 20:33N 59°20' E 018°05'0 0.0
2015-Aug-27 19:33N 59°20' E 018°05'0 0.0
2015-Aug-27 18:33N 59°20' E 018°05'0 0.0
2015-Aug-27 17:33N 59°20' E 018°05'0 0.0
2015-Aug-27 16:33N 59°20' E 018°05'8 7.3
2015-Aug-27 15:26N 59°23' E 018°19'0 0.0
2015-Aug-27 07:05N 59°23' E 018°19'611.4
2015-Aug-27 06:33N 59°19' E 018°09'2 2.5
2015-Aug-27 05:33N 59°20' E 018°05'0 0.0
2015-Aug-27 04:33N 59°20' E 018°05'0 0.0
2015-Aug-27 03:33N 59°20' E 018°05'0 0.0
2015-Aug-27 02:33N 59°20' E 018°05'0 0.0
2015-Aug-27 01:33N 59°20' E 018°05'0 0.0
2015-Aug-27 00:33N 59°20' E 018°05'0 0.0
2015-Aug-26 23:33N 59°20' E 018°05'0 0.0
2015-Aug-26 22:33N 59°20' E 018°05'0 0.0
2015-Aug-26 21:33N 59°20' E 018°05'0 0.0
2015-Aug-26 20:33N 59°20' E 018°05'0 0.0
2015-Aug-26 19:33N 59°20' E 018°05'0 0.0
2015-Aug-26 18:33N 59°20' E 018°05'0 0.0
2015-Aug-26 17:33N 59°20' E 018°05'0 0.0
2015-Aug-26 16:33N 59°20' E 018°05'0 0.0
2015-Aug-26 15:33N 59°20' E 018°05'0 0.0
2015-Aug-26 14:33N 59°20' E 018°05'0 0.0
2015-Aug-26 13:33N 59°20' E 018°05'0 0.0
2015-Aug-26 12:33N 59°20' E 018°05'0 0.0
2015-Aug-26 11:33N 59°20' E 018°05'0 0.0
2015-Aug-26 10:33N 59°20' E 018°05'0 0.0
2015-Aug-26 09:34N 59°20' E 018°05'0 0.0
2015-Aug-26 08:30N 59°20' E 018°05'0 0.0
2015-Aug-26 07:33N 59°20' E 018°05'0 0.0
2015-Aug-26 06:33N 59°20' E 018°05'0 0.0
2015-Aug-26 05:33N 59°20' E 018°05'0 0.0
2015-Aug-26 04:33N 59°20' E 018°05'0 0.0
2015-Aug-26 03:32N 59°20' E 018°05'0 0.0
2015-Aug-26 02:33N 59°20' E 018°05'0 0.0
2015-Aug-26 01:34N 59°20' E 018°05'0 0.0
2015-Aug-26 00:33N 59°20' E 018°05'0 0.0
2015-Aug-25 23:33N 59°20' E 018°05'0 0.0
2015-Aug-25 22:33N 59°20' E 018°05'0 0.0
2015-Aug-25 21:34N 59°20' E 018°05'0 0.0
2015-Aug-25 20:33N 59°20' E 018°05'0 0.0
2015-Aug-25 19:33N 59°20' E 018°05'0 0.0
2015-Aug-25 18:33N 59°20' E 018°05'0 0.0
2015-Aug-25 17:33N 59°20' E 018°05'0 0.0
2015-Aug-25 16:30N 59°20' E 018°05'0 0.0
2015-Aug-25 15:33N 59°20' E 018°05'0 0.0
2015-Aug-25 14:33N 59°20' E 018°05'0 0.0
2015-Aug-25 13:33N 59°20' E 018°05'0 0.0
2015-Aug-25 12:33N 59°20' E 018°05'0 0.0
2015-Aug-25 11:33N 59°20' E 018°05'0 0.0
2015-Aug-25 10:33N 59°20' E 018°05'0 0.0
2015-Aug-25 09:33N 59°20' E 018°05'3 0.6
2015-Aug-25 05:31N 59°19' E 018°10'6 0.5
2015-Aug-24 16:29N 59°23' E 018°20'8 8.9
2015-Aug-24 15:32N 59°20' E 018°05'0 0.2
2015-Aug-24 14:33N 59°20' E 018°05'0 0.0
2015-Aug-24 13:33N 59°20' E 018°05'0 0.0
2015-Aug-24 12:33N 59°20' E 018°05'0 0.0
2015-Aug-24 11:33N 59°20' E 018°05'0 0.0
2015-Aug-24 10:33N 59°20' E 018°05'0 0.0
2015-Aug-24 09:33N 59°20' E 018°05'0 0.0
2015-Aug-24 08:33N 59°20' E 018°05'0 0.0
2015-Aug-24 07:27N 59°20' E 018°05'0 0.0
2015-Aug-24 06:33N 59°20' E 018°05'3 2.6
2015-Aug-24 05:33N 59°19' E 018°09'4 0.4
2015-Aug-23 19:32N 59°22' E 018°16'6 6.2
2015-Aug-23 18:34N 59°20' E 018°04'6 5.7
2015-Aug-23 17:33N 59°22' E 018°15'2 0.2
2015-Aug-23 08:25N 59°20' E 018°12'4 4.7
2015-Aug-23 07:34N 59°20' E 018°05'0 0.0
2015-Aug-23 06:33N 59°20' E 018°05'0 0.0
2015-Aug-23 05:34N 59°20' E 018°05'0 0.0
2015-Aug-23 04:33N 59°20' E 018°05'0 0.0
2015-Aug-23 03:33N 59°20' E 018°05'0 0.0
2015-Aug-23 02:33N 59°20' E 018°05'0 0.0
2015-Aug-23 01:34N 59°20' E 018°05'0 0.0
2015-Aug-23 00:34N 59°20' E 018°05'0 0.0
2015-Aug-22 23:33N 59°20' E 018°05'0 0.0
2015-Aug-22 22:33N 59°20' E 018°05'0 0.0
2015-Aug-22 21:33N 59°20' E 018°05'0 0.0
2015-Aug-22 20:33N 59°20' E 018°05'0 0.0
2015-Aug-22 19:34N 59°20' E 018°05'0 0.0
2015-Aug-22 18:34N 59°20' E 018°05'0 0.0
2015-Aug-22 17:34N 59°20' E 018°05'2 2.2
2015-Aug-22 16:29N 59°19' E 018°09'7 0.7
2015-Aug-22 07:22N 59°23' E 018°20'910.5
2015-Aug-22 06:33N 59°19' E 018°05'0 0.5
2015-Aug-22 05:33N 59°20' E 018°05'0 0.0
2015-Aug-22 04:34N 59°20' E 018°05'0 0.0
2015-Aug-22 03:33N 59°20' E 018°05'0 0.0
2015-Aug-22 02:33N 59°20' E 018°05'0 0.0
2015-Aug-22 01:33N 59°20' E 018°05'0 0.0
2015-Aug-22 00:33N 59°20' E 018°05'0 0.0
2015-Aug-21 23:33N 59°20' E 018°05'0 0.0
2015-Aug-21 22:33N 59°20' E 018°05'0 0.0
2015-Aug-21 21:33N 59°20' E 018°05'0 0.0
2015-Aug-21 20:33N 59°20' E 018°05'0 0.1
2015-Aug-21 19:34N 59°20' E 018°05'7 1.3
2015-Aug-21 14:32N 59°22' E 018°17'7 6.9
2015-Aug-21 13:33N 59°20' E 018°05'3 0.4
2015-Aug-21 06:33N 59°19' E 018°10'3 2.7
2015-Aug-21 05:33N 59°20' E 018°05'0 0.0
2015-Aug-21 04:33N 59°20' E 018°05'0 0.0
2015-Aug-21 03:33N 59°20' E 018°05'0 0.0
2015-Aug-21 02:33N 59°20' E 018°05'0 0.0
2015-Aug-21 01:33N 59°20' E 018°05'0 0.0
2015-Aug-21 00:33N 59°20' E 018°05'0 0.0
2015-Aug-20 23:33N 59°20' E 018°05'0 0.0
2015-Aug-20 22:33N 59°20' E 018°05'0 0.0
2015-Aug-20 21:33N 59°20' E 018°05'0 0.0
2015-Aug-20 20:33N 59°20' E 018°05'0 0.0
2015-Aug-20 19:33N 59°20' E 018°05'0 0.0
2015-Aug-20 18:33N 59°20' E 018°05'0 0.0
2015-Aug-20 17:33N 59°20' E 018°05'0 0.0
2015-Aug-20 16:33N 59°20' E 018°05'8 7.7
2015-Aug-20 15:29N 59°23' E 018°20'  

Dump ship's entire track history